Time;durP1;ratioP1;P1;durP2;ratioP2;P2;SDS_P1;SDS_P2;PMS_P1;PMS_P2;Temp;Humidity;BMP_temperature;BMP_pressure;BME280_temperature;BME280_humidity;BME280_pressure;Samples;Min_cycle;Max_cycle;Signal;HPM_P1;HPM_P2
2022/12/21 00:00:47;;;;;;;177.20;105.90;;;0.50;2201.60;;;;;;4920600;29;20020;-79
2022/12/21 00:03:39;;;;;;;177.57;102.93;;;0.40;2201.60;;;;;;4945568;29;20043;-80
2022/12/21 00:06:46;;;;;;;150.48;86.18;;;0.40;2201.60;;;;;;4937361;29;20036;-78
2022/12/21 00:13:06;;;;;;;160.10;84.63;;;0.20;2201.60;;;;;;4900925;29;20052;-78
2022/12/21 00:16:08;;;;;;;159.38;91.32;;;0.20;2201.60;;;;;;4915445;29;20053;-78
2022/12/21 00:19:03;;;;;;;145.98;88.72;;;0.10;2201.60;;;;;;4934216;29;20044;-77
2022/12/21 00:22:06;;;;;;;147.85;83.85;;;0.10;2201.60;;;;;;4936815;29;20038;-79
2022/12/21 00:24:34;;;;;;;135.77;73.75;;;0.10;2201.60;;;;;;4935964;29;20032;-78
2022/12/21 00:27:02;;;;;;;139.43;82.93;;;12.90;2201.60;;;;;;4949812;29;20088;-78
2022/12/21 00:29:29;;;;;;;139.85;81.90;;;12.90;2201.60;;;;;;4935290;29;20031;-77
2022/12/21 00:31:57;;;;;;;160.40;90.80;;;0.00;2201.60;;;;;;4935333;29;20055;-78
2022/12/21 00:34:25;;;;;;;142.57;82.22;;;0.00;2201.60;;;;;;4954008;29;20024;-78
2022/12/21 00:36:51;;;;;;;126.65;71.38;;;0.10;2201.60;;;;;;4953891;29;20089;-77
2022/12/21 00:39:28;;;;;;;116.85;71.70;;;12.90;2201.60;;;;;;4954059;29;20020;-79
2022/12/21 00:41:54;;;;;;;108.05;60.13;;;0.00;2201.60;;;;;;4954463;29;20024;-79
2022/12/21 00:44:20;;;;;;;118.32;69.35;;;13.00;2201.60;;;;;;4950251;29;20028;-77
2022/12/21 00:46:48;;;;;;;137.93;77.50;;;13.10;2201.60;;;;;;4919926;29;20055;-78
2022/12/21 00:49:17;;;;;;;153.85;87.10;;;13.70;2201.60;;;;;;4903683;29;20016;-78
2022/12/21 00:52:10;;;;;;;166.45;93.70;;;12.90;2201.60;;;;;;4918438;29;20044;-77
2022/12/21 00:55:01;;;;;;;199.60;104.87;;;0.00;2201.60;;;;;;4921713;29;20033;-79
2022/12/21 00:57:31;;;;;;;232.10;123.03;;;0.10;2201.60;;;;;;4935563;29;20025;-79
2022/12/21 00:59:57;;;;;;;271.50;142.50;;;0.20;2201.60;;;;;;4919802;29;20136;-78
2022/12/21 01:02:23;;;;;;;298.05;155.32;;;0.30;2201.60;;;;;;4918115;29;20012;-78
2022/12/21 01:04:49;;;;;;;298.88;154.25;;;0.40;2201.60;;;;;;4918942;29;20017;-78
2022/12/21 01:07:16;;;;;;;319.00;157.63;;;0.40;2201.60;;;;;;4919284;29;20064;-78
2022/12/21 01:09:44;;;;;;;287.05;153.40;;;0.40;2201.60;;;;;;4919921;29;20049;-77
2022/12/21 01:12:10;;;;;;;308.52;165.77;;;0.40;2201.60;;;;;;4903495;29;20047;-78
2022/12/21 01:14:37;;;;;;;278.27;145.75;;;0.40;2201.60;;;;;;4918534;29;20037;-78
2022/12/21 01:17:03;;;;;;;283.42;147.40;;;0.20;2201.60;;;;;;4918959;29;20028;-79
2022/12/21 01:19:28;;;;;;;223.57;119.80;;;0.10;2201.60;;;;;;4918581;29;20025;-77
2022/12/21 01:21:59;;;;;;;234.80;131.20;;;0.20;2201.60;;;;;;4918266;29;20024;-79
2022/12/21 01:24:30;;;;;;;210.25;115.15;;;0.00;2201.60;;;;;;4919381;29;20045;-78
2022/12/21 01:26:56;;;;;;;194.15;106.97;;;0.00;2201.60;;;;;;4919001;29;20012;-79
2022/12/21 01:29:23;;;;;;;199.93;105.15;;;0.10;2201.60;;;;;;4918579;29;20032;-78
2022/12/21 01:31:49;;;;;;;211.02;111.38;;;0.20;2201.60;;;;;;4917977;29;20052;-77
2022/12/21 01:34:15;;;;;;;206.82;115.68;;;0.30;2201.60;;;;;;4918314;29;20025;-77
2022/12/21 01:36:42;;;;;;;203.20;113.93;;;0.30;2201.60;;;;;;4917741;29;20045;-78
2022/12/21 01:39:08;;;;;;;215.85;114.00;;;0.20;2201.60;;;;;;4917896;29;20100;-76
2022/12/21 01:41:39;;;;;;;153.68;84.28;;;0.20;2201.60;;;;;;4918945;29;20029;-77
2022/12/21 01:44:43;;;;;;;124.25;72.10;;;0.00;2201.60;;;;;;4917969;29;20025;-78
2022/12/21 01:47:18;;;;;;;124.00;68.70;;;12.90;2201.60;;;;;;4933053;29;20033;-78
2022/12/21 01:49:52;;;;;;;138.52;77.07;;;13.10;2201.60;;;;;;4918945;29;20032;-78
2022/12/21 01:52:19;;;;;;;150.80;82.43;;;13.00;2201.60;;;;;;4917605;29;20037;-78
2022/12/21 01:54:59;;;;;;;163.25;87.90;;;13.10;2201.60;;;;;;4919367;29;20025;-78
2022/12/21 01:57:29;;;;;;;146.48;82.20;;;13.00;2201.60;;;;;;4918430;29;20013;-79
2022/12/21 02:00:00;;;;;;;136.32;75.40;;;13.10;2201.60;;;;;;4918732;29;20085;-79
2022/12/21 02:02:55;;;;;;;145.40;79.95;;;13.20;2201.60;;;;;;4932030;29;20036;-79
2022/12/21 02:05:40;;;;;;;124.03;72.70;;;13.20;2201.60;;;;;;4917718;29;20037;-78
2022/12/21 02:08:09;;;;;;;130.07;72.57;;;13.20;2201.60;;;;;;4932664;29;20024;-80
2022/12/21 02:10:37;;;;;;;135.38;70.18;;;13.20;2201.60;;;;;;4916929;29;20024;-78
2022/12/21 02:13:10;;;;;;;143.27;79.43;;;13.20;2201.60;;;;;;4901834;29;20059;-78
2022/12/21 02:15:58;;;;;;;139.05;77.25;;;13.10;2201.60;;;;;;4926717;29;20036;-79
2022/12/21 02:18:42;;;;;;;140.18;77.38;;;12.90;2201.60;;;;;;4935815;29;20088;-78
2022/12/21 02:21:35;;;;;;;123.97;66.32;;;13.00;2201.60;;;;;;4951127;29;20497;-78
2022/12/21 02:24:38;;;;;;;99.50;52.75;;;13.00;2201.60;;;;;;4936946;29;20028;-77
2022/12/21 02:27:12;;;;;;;101.70;58.72;;;13.20;2201.60;;;;;;4936049;29;20060;-78
2022/12/21 02:30:00;;;;;;;107.20;57.15;;;13.20;2201.60;;;;;;4936351;29;20028;-76
2022/12/21 02:33:00;;;;;;;115.13;61.42;;;13.10;2201.60;;;;;;4949557;29;20138;-76
2022/12/21 02:35:45;;;;;;;112.63;64.38;;;13.20;2201.60;;;;;;4915909;29;20036;-78
2022/12/21 02:38:43;;;;;;;115.38;65.78;;;13.20;2201.60;;;;;;4935114;29;20123;-78
2022/12/21 02:41:27;;;;;;;113.03;63.42;;;13.30;2201.60;;;;;;4934568;29;20040;-78
2022/12/21 02:44:24;;;;;;;89.45;51.20;;;13.30;2201.60;;;;;;4951026;29;20032;-78
2022/12/21 02:47:09;;;;;;;88.57;53.45;;;13.20;2201.60;;;;;;4933578;29;20024;-77
2022/12/21 02:49:49;;;;;;;87.47;50.92;;;13.30;2201.60;;;;;;4936080;29;20043;-78
2022/12/21 02:52:26;;;;;;;89.50;53.13;;;13.30;2201.60;;;;;;4934768;29;20025;-78
2022/12/21 02:54:57;;;;;;;98.05;55.25;;;13.30;2201.60;;;;;;4933605;29;20020;-78
2022/12/21 02:57:44;;;;;;;114.00;63.28;;;13.40;2201.60;;;;;;4935191;29;20024;-78
2022/12/21 03:00:18;;;;;;;138.63;77.70;;;13.50;2201.60;;;;;;4935792;29;20036;-78
2022/12/21 03:06:13;;;;;;;107.22;55.55;;;13.30;2201.60;;;;;;4936294;29;20060;-78
2022/12/21 03:09:09;;;;;;;96.65;55.40;;;13.30;2201.60;;;;;;4935672;29;20028;-77
2022/12/21 03:11:58;;;;;;;119.13;64.30;;;13.10;2201.60;;;;;;4934981;29;20092;-78
2022/12/21 03:14:45;;;;;;;110.93;61.85;;;13.20;2201.60;;;;;;4929664;29;20043;-77
2022/12/21 03:17:26;;;;;;;103.10;55.22;;;13.30;2201.60;;;;;;4934586;29;20377;-79
2022/12/21 03:19:55;;;;;;;105.97;58.30;;;13.20;2201.60;;;;;;4934529;29;20035;-79
2022/12/21 03:22:31;;;;;;;109.05;62.35;;;13.10;2201.60;;;;;;4934910;29;20024;-78
2022/12/21 03:25:11;;;;;;;124.30;63.70;;;13.10;2201.60;;;;;;4934608;29;20031;-79
2022/12/21 03:27:46;;;;;;;82.65;48.92;;;13.20;2201.60;;;;;;4933828;29;20056;-78
2022/12/21 03:30:17;;;;;;;85.10;45.72;;;13.20;2201.60;;;;;;4933744;29;20028;-77
2022/12/21 03:32:52;;;;;;;82.82;47.05;;;13.40;2201.60;;;;;;4933234;29;20056;-77
2022/12/21 03:35:28;;;;;;;74.20;45.95;;;13.40;2201.60;;;;;;4932922;29;20028;-77
2022/12/21 03:37:56;;;;;;;80.15;43.03;;;13.40;2201.60;;;;;;4932821;29;20039;-78
2022/12/21 03:41:10;;;;;;;75.50;40.35;;;13.40;2201.60;;;;;;4934638;29;20028;-78
2022/12/21 03:44:43;;;;;;;78.03;41.22;;;13.50;2201.60;;;;;;4914927;29;20040;-78
2022/12/21 03:48:17;;;;;;;113.97;61.47;;;13.60;2201.60;;;;;;4952957;29;20020;-78
2022/12/21 03:51:54;;;;;;;109.65;57.85;;;13.70;2201.60;;;;;;4876583;29;20049;-78
2022/12/21 03:55:26;;;;;;;145.60;79.13;;;13.70;2201.60;;;;;;4840628;29;20409;-80
2022/12/21 03:58:29;;;;;;;111.53;62.97;;;13.60;2201.60;;;;;;4825618;29;20115;-80
2022/12/21 04:01:45;;;;;;;116.72;59.55;;;13.70;2201.60;;;;;;4825177;29;20042;-79
2022/12/21 04:05:03;;;;;;;98.72;53.95;;;13.50;2201.60;;;;;;4841286;29;20026;-78
2022/12/21 04:08:12;;;;;;;103.68;53.70;;;13.60;2201.60;;;;;;4825836;29;20070;-78
2022/12/21 04:11:05;;;;;;;81.88;46.65;;;13.60;2201.60;;;;;;4846487;29;20045;-78
2022/12/21 04:13:52;;;;;;;101.57;51.00;;;13.40;2201.60;;;;;;4900537;29;20122;-78
2022/12/21 04:16:26;;;;;;;100.05;55.53;;;13.50;2201.60;;;;;;4898556;29;20025;-78
2022/12/21 04:28:06;;;;;;;111.88;56.85;;;13.60;2201.60;;;;;;4870807;29;20267;-78
2022/12/21 04:28:26;;;;;;;167.55;78.55;;;13.40;2201.60;;;;;;4895356;29;20040;-77
2022/12/21 04:31:32;;;;;;;131.48;71.22;;;13.50;2201.60;;;;;;4893880;29;20117;-78
2022/12/21 04:34:02;;;;;;;111.28;54.28;;;13.60;2201.60;;;;;;4899734;29;20029;-78
2022/12/21 04:39:22;;;;;;;105.85;59.05;;;13.60;2201.60;;;;;;4930976;29;20036;-78
2022/12/21 04:41:49;;;;;;;107.85;59.22;;;13.70;2201.60;;;;;;4952625;29;20032;-78
2022/12/21 04:44:44;;;;;;;132.43;67.47;;;13.70;2201.60;;;;;;4935796;29;20039;-79
2022/12/21 04:47:25;;;;;;;133.05;73.50;;;38.40;2201.60;;;;;;4935870;29;20100;-78
2022/12/21 04:50:09;;;;;;;125.88;68.50;;;38.40;2201.60;;;;;;4954131;29;20125;-79
2022/12/21 04:52:40;;;;;;;105.93;62.20;;;13.70;2201.60;;;;;;4938770;29;20064;-78
2022/12/21 04:55:15;;;;;;;102.30;56.30;;;13.30;2201.60;;;;;;4938953;29;20024;-78
2022/12/21 04:58:13;;;;;;;122.18;62.58;;;13.60;2201.60;;;;;;4938816;29;20028;-78
2022/12/21 05:00:47;;;;;;;111.18;59.90;;;13.50;2201.60;;;;;;4939600;29;20056;-78
2022/12/21 05:03:42;;;;;;;95.18;53.17;;;13.50;2201.60;;;;;;4938801;29;20036;-78
2022/12/21 05:06:24;;;;;;;84.43;47.83;;;64.40;2201.60;;;;;;4932088;29;20047;-78
2022/12/21 05:08:53;;;;;;;167.75;72.32;;;38.40;2201.60;;;;;;4938137;29;20086;-78
2022/12/21 05:11:41;;;;;;;109.75;57.88;;;13.70;2201.60;;;;;;4937635;29;20036;-79
2022/12/21 05:14:21;;;;;;;176.48;85.00;;;38.40;2201.60;;;;;;4938118;29;20091;-78
2022/12/21 05:16:58;;;;;;;146.15;71.40;;;38.40;2201.60;;;;;;4937410;29;20028;-78
2022/12/21 05:19:47;;;;;;;98.53;55.33;;;13.70;2201.60;;;;;;4929467;29;20036;-78
2022/12/21 05:22:21;;;;;;;97.40;54.30;;;13.70;2201.60;;;;;;4952753;29;20032;-78
2022/12/21 05:24:52;;;;;;;105.45;54.75;;;38.50;2201.60;;;;;;4952776;29;20104;-77
2022/12/21 05:27:47;;;;;;;110.55;59.80;;;38.50;2201.60;;;;;;4921492;29;20068;-78
2022/12/21 05:30:15;;;;;;;138.93;69.05;;;38.50;2201.60;;;;;;4923571;29;20064;-78
2022/12/21 05:32:43;;;;;;;152.13;79.38;;;38.40;2201.60;;;;;;4933972;29;20050;-79
2022/12/21 05:35:11;;;;;;;153.45;76.65;;;38.50;2201.60;;;;;;4969342;29;20035;-79
2022/12/21 05:37:39;;;;;;;161.00;78.03;;;38.60;2201.60;;;;;;4955927;29;20024;-78
2022/12/21 05:40:08;;;;;;;160.90;78.07;;;38.50;2201.60;;;;;;4953634;29;20051;-79
2022/12/21 05:42:36;;;;;;;156.60;78.65;;;13.70;2201.60;;;;;;4955704;29;20043;-77
2022/12/21 05:45:03;;;;;;;156.40;79.53;;;38.50;2201.60;;;;;;4955152;29;20036;-78
2022/12/21 05:47:31;;;;;;;153.45;80.30;;;38.70;2201.60;;;;;;4970943;29;20034;-78
2022/12/21 05:49:58;;;;;;;146.68;74.03;;;38.50;2201.60;;;;;;4970438;29;20095;-78
2022/12/21 05:52:24;;;;;;;150.05;74.78;;;38.50;2201.60;;;;;;4954835;29;20042;-78
2022/12/21 05:54:50;;;;;;;139.65;70.40;;;38.80;2201.60;;;;;;4970642;29;20024;-78
2022/12/21 05:57:17;;;;;;;165.48;85.88;;;38.50;2201.60;;;;;;4938902;29;20552;-79
2022/12/21 05:59:46;;;;;;;192.07;106.45;;;13.50;2201.60;;;;;;4954414;29;20027;-79
2022/12/21 06:02:13;;;;;;;208.93;113.85;;;38.50;2201.60;;;;;;4938191;29;20042;-78
2022/12/21 06:04:42;;;;;;;170.82;95.25;;;38.70;2201.60;;;;;;4953905;29;20028;-78
2022/12/21 06:07:09;;;;;;;140.98;78.85;;;38.50;2201.60;;;;;;4970567;29;20055;-78
2022/12/21 06:09:35;;;;;;;129.43;73.28;;;38.40;2201.60;;;;;;4971494;29;20028;-79
2022/12/21 06:12:02;;;;;;;153.27;73.95;;;38.50;2201.60;;;;;;4970738;29;20038;-78
2022/12/21 06:14:28;;;;;;;200.27;99.35;;;38.50;2201.60;;;;;;4955271;29;20032;-78
2022/12/21 06:16:55;;;;;;;245.52;116.25;;;38.50;2201.60;;;;;;4971064;29;20117;-79
2022/12/21 06:19:21;;;;;;;222.70;113.43;;;38.40;2201.60;;;;;;4971836;29;20500;-78
2022/12/21 06:21:49;;;;;;;238.73;115.78;;;38.50;2201.60;;;;;;4970849;29;20040;-79
2022/12/21 06:24:16;;;;;;;200.02;106.35;;;38.50;2201.60;;;;;;4955598;29;20024;-78
2022/12/21 06:26:42;;;;;;;191.10;100.32;;;38.40;2201.60;;;;;;4955826;29;20055;-79
2022/12/21 06:29:10;;;;;;;168.13;93.43;;;13.70;2201.60;;;;;;4954574;29;20047;-79
2022/12/21 06:31:39;;;;;;;186.98;97.32;;;38.50;2201.60;;;;;;4954337;29;20063;-78
2022/12/21 06:34:07;;;;;;;188.90;101.78;;;38.60;2201.60;;;;;;4956054;29;20027;-79
2022/12/21 06:36:32;;;;;;;195.25;103.60;;;38.50;2201.60;;;;;;4953967;29;20027;-78
2022/12/21 06:38:58;;;;;;;208.70;114.45;;;38.40;2201.60;;;;;;4968598;29;20028;-79
2022/12/21 06:41:25;;;;;;;165.43;88.03;;;38.50;2201.60;;;;;;4956277;29;20039;-79
2022/12/21 06:43:51;;;;;;;136.73;76.35;;;38.70;2201.60;;;;;;4952055;29;20059;-79
2022/12/21 06:46:19;;;;;;;142.60;79.78;;;38.50;2201.60;;;;;;4934412;29;20032;-78
2022/12/21 06:48:46;;;;;;;140.88;76.70;;;38.40;2201.60;;;;;;4931236;29;20039;-78
2022/12/21 06:51:22;;;;;;;149.15;80.80;;;38.40;2201.60;;;;;;4933885;29;20038;-78
2022/12/21 06:53:50;;;;;;;158.55;89.05;;;38.50;2201.60;;;;;;4933877;29;20580;-78
2022/12/21 06:56:26;;;;;;;192.02;107.75;;;38.40;2201.60;;;;;;4936340;29;20028;-79
2022/12/21 06:59:05;;;;;;;248.80;139.35;;;13.60;2201.60;;;;;;4935975;29;20048;-79
2022/12/21 07:01:35;;;;;;;276.90;146.88;;;13.70;2201.60;;;;;;4935353;29;20032;-79
2022/12/21 07:04:02;;;;;;;181.35;108.47;;;38.40;2201.60;;;;;;4933904;29;20038;-78
2022/12/21 07:06:34;;;;;;;188.45;103.38;;;13.70;2201.60;;;;;;4935359;29;20032;-78
2022/12/21 07:09:11;;;;;;;229.20;123.72;;;13.60;2201.60;;;;;;4920872;29;20051;-78
2022/12/21 07:11:40;;;;;;;282.50;149.75;;;13.50;2201.60;;;;;;4936613;29;20062;-79
2022/12/21 07:14:06;;;;;;;292.67;147.85;;;13.30;2201.60;;;;;;4951953;29;20092;-78
2022/12/21 07:16:31;;;;;;;363.75;204.75;;;13.20;2201.60;;;;;;4946946;29;20036;-78
2022/12/21 07:18:57;;;;;;;278.20;158.13;;;13.20;2201.60;;;;;;4947388;29;20020;-78
2022/12/21 07:21:23;;;;;;;271.75;165.75;;;13.20;2201.60;;;;;;4942704;29;20086;-78
2022/12/21 07:23:49;;;;;;;267.15;165.13;;;13.20;2201.60;;;;;;4938742;29;20032;-77
2022/12/21 07:26:20;;;;;;;257.45;155.48;;;13.20;2201.60;;;;;;4940084;29;20032;-78
2022/12/21 07:28:47;;;;;;;267.05;153.52;;;13.10;2201.60;;;;;;4940046;29;20040;-78
2022/12/21 07:31:19;;;;;;;280.35;161.45;;;13.00;2201.60;;;;;;4942622;29;20064;-77
2022/12/21 07:33:45;;;;;;;303.42;175.82;;;12.90;2201.60;;;;;;4943438;29;20034;-78
2022/12/21 07:36:12;;;;;;;311.38;191.15;;;12.90;2201.60;;;;;;4942002;29;20023;-77
2022/12/21 07:38:39;;;;;;;289.13;174.18;;;0.00;2201.60;;;;;;4940772;29;20043;-78
2022/12/21 07:41:08;;;;;;;274.08;154.68;;;0.10;2201.60;;;;;;4940647;29;20031;-77
2022/12/21 07:43:35;;;;;;;169.27;99.68;;;0.30;2201.60;;;;;;4942051;29;20032;-79
2022/12/21 07:46:02;;;;;;;217.23;125.63;;;0.10;2201.60;;;;;;4941880;29;20035;-77
2022/12/21 07:48:28;;;;;;;200.95;118.93;;;0.20;2201.60;;;;;;4941549;29;20035;-77
2022/12/21 07:50:54;;;;;;;173.18;99.50;;;0.30;2201.60;;;;;;4942990;29;20476;-77
2022/12/21 07:53:20;;;;;;;178.52;103.40;;;0.30;2201.60;;;;;;4942736;29;20094;-77
2022/12/21 07:55:46;;;;;;;155.68;99.30;;;0.40;2201.60;;;;;;4942365;29;20050;-78
2022/12/21 07:58:12;;;;;;;161.23;93.32;;;0.40;2201.60;;;;;;4943109;29;20042;-78
2022/12/21 08:00:37;;;;;;;144.77;85.32;;;0.40;2201.60;;;;;;4942463;29;20099;-77
2022/12/21 08:03:08;;;;;;;152.40;89.18;;;0.50;2201.60;;;;;;4942546;29;20388;-78
2022/12/21 08:05:35;;;;;;;173.38;102.05;;;0.60;2201.60;;;;;;4942079;29;20071;-77
2022/12/21 08:08:02;;;;;;;163.82;101.88;;;0.60;2201.60;;;;;;4942147;29;20035;-76
2022/12/21 08:10:28;;;;;;;165.75;99.15;;;0.60;2201.60;;;;;;4943115;29;20031;-77
2022/12/21 08:12:54;;;;;;;196.05;119.13;;;0.70;2201.60;;;;;;4941969;29;20153;-79
2022/12/21 08:15:21;;;;;;;208.95;127.32;;;0.80;2201.60;;;;;;4942815;29;20039;-76
2022/12/21 08:17:48;;;;;;;172.40;103.95;;;0.90;2201.60;;;;;;4943847;29;20024;-76
2022/12/21 08:20:14;;;;;;;165.68;105.32;;;25.70;2201.60;;;;;;4942242;29;20078;-77
2022/12/21 08:22:41;;;;;;;191.48;112.53;;;25.80;2201.60;;;;;;4946892;29;20063;-78
2022/12/21 08:25:08;;;;;;;170.63;108.35;;;25.80;2201.60;;;;;;4953204;29;20056;-78
2022/12/21 08:27:34;;;;;;;148.30;96.20;;;25.90;2201.60;;;;;;4938574;29;20028;-78
2022/12/21 08:30:00;;;;;;;130.95;82.90;;;26.10;2201.60;;;;;;4954499;29;20032;-78
2022/12/21 08:32:26;;;;;;;142.40;83.20;;;26.20;2201.60;;;;;;4936389;29;20082;-79
2022/12/21 08:34:52;;;;;;;128.20;74.63;;;26.30;2201.60;;;;;;4937114;29;20050;-81
2022/12/21 08:37:17;;;;;;;114.32;70.32;;;26.40;2201.60;;;;;;4923350;29;20043;-81
2022/12/21 08:39:43;;;;;;;116.47;73.28;;;26.30;2201.60;;;;;;4928512;29;20040;-78
2022/12/21 08:42:09;;;;;;;119.93;71.95;;;26.30;2201.60;;;;;;4943718;29;20388;-79
2022/12/21 08:44:35;;;;;;;117.93;70.03;;;26.40;2201.60;;;;;;4938629;29;20032;-78
2022/12/21 08:47:01;;;;;;;127.22;78.20;;;26.40;2201.60;;;;;;4913084;29;20036;-77
2022/12/21 08:49:27;;;;;;;101.72;58.60;;;51.30;2227.20;;;;;;4908734;29;20111;-79
2022/12/21 08:51:52;;;;;;;104.97;60.08;;;26.50;2201.60;;;;;;4907647;29;20146;-77
2022/12/21 08:54:18;;;;;;;102.10;60.10;;;26.50;2201.60;;;;;;4911340;29;20146;-80
2022/12/21 08:56:44;;;;;;;112.55;65.90;;;51.30;2227.20;;;;;;4913187;29;20385;-77
2022/12/21 08:59:10;;;;;;;94.85;59.92;;;51.40;2227.20;;;;;;4911147;29;20039;-80
2022/12/21 09:01:36;;;;;;;92.72;58.60;;;51.50;2227.20;;;;;;4908047;29;20067;-80
2022/12/21 09:04:02;;;;;;;87.05;52.63;;;51.60;2227.20;;;;;;4908614;29;20051;-78
2022/12/21 09:06:29;;;;;;;85.75;51.22;;;51.70;2227.20;;;;;;4925405;29;20480;-81
2022/12/21 09:08:56;;;;;;;86.05;51.75;;;51.80;2227.20;;;;;;4905225;29;20382;-79
2022/12/21 09:11:24;;;;;;;101.88;60.58;;;51.90;2227.20;;;;;;4903455;29;20080;-81
2022/12/21 09:13:50;;;;;;;109.20;60.20;;;52.00;2227.20;;;;;;4903550;29;20025;-81
2022/12/21 09:16:22;;;;;;;111.28;64.80;;;52.10;2227.20;;;;;;4902823;29;20028;-81
2022/12/21 09:18:49;;;;;;;95.97;57.33;;;76.80;2227.20;;;;;;4903275;29;20032;-85
2022/12/21 09:21:17;;;;;;;110.13;69.00;;;76.90;2227.20;;;;;;4916568;29;20039;-82
2022/12/21 09:23:42;;;;;;;107.63;63.35;;;76.90;2227.20;;;;;;4937702;29;20031;-79
2022/12/21 09:26:09;;;;;;;95.68;57.53;;;76.90;2227.20;;;;;;4934079;29;20118;-79
2022/12/21 09:28:35;;;;;;;87.45;51.88;;;77.00;2227.20;;;;;;4922334;29;20075;-79
2022/12/21 09:31:13;;;;;;;114.82;74.80;;;77.10;2227.20;;;;;;4921107;29;20082;-81
2022/12/21 09:33:40;;;;;;;74.90;45.75;;;77.20;2227.20;;;;;;4938073;29;20403;-82
2022/12/21 09:36:08;;;;;;;72.45;43.25;;;77.20;2227.20;;;;;;4922314;29;20039;-81
2022/12/21 09:38:37;;;;;;;68.95;44.53;;;77.30;2227.20;;;;;;4921322;29;20114;-82
2022/12/21 09:41:27;;;;;;;67.53;42.10;;;77.40;2227.20;;;;;;4905058;29;20047;-83
2022/12/21 09:44:31;;;;;;;89.43;50.83;;;77.50;2227.20;;;;;;4921115;29;20094;-82
2022/12/21 09:47:00;;;;;;;82.25;48.30;;;77.60;2227.20;;;;;;4921889;29;20035;-82
2022/12/21 09:49:44;;;;;;;75.43;45.38;;;102.40;2227.20;;;;;;4921243;29;20063;-82
2022/12/21 09:52:21;;;;;;;89.97;52.83;;;102.50;2227.20;;;;;;4921217;29;20062;-82
2022/12/21 09:55:03;;;;;;;76.03;48.70;;;102.60;2227.20;;;;;;4921388;29;20023;-85
2022/12/21 09:57:36;;;;;;;78.10;46.70;;;102.70;2227.20;;;;;;4906166;29;20468;-83
2022/12/21 10:00:14;;;;;;;55.65;34.90;;;102.70;2227.20;;;;;;4920694;29;20035;-85
2022/12/21 10:03:27;;;;;;;65.07;39.90;;;102.80;2227.20;;;;;;4922657;29;20032;-85
2022/12/21 10:06:27;;;;;;;75.25;39.00;;;103.00;2227.20;;;;;;4933688;29;20031;-85
2022/12/21 10:09:16;;;;;;;60.85;35.92;;;103.10;2227.20;;;;;;4918289;29;20024;-87
2022/12/21 10:12:13;;;;;;;76.97;45.15;;;103.20;2227.20;;;;;;4918657;29;20071;-81
2022/12/21 10:15:16;;;;;;;87.93;52.15;;;103.30;2227.20;;;;;;4920931;29;20496;-86
2022/12/21 10:21:51;;;;;;;77.55;48.03;;;128.10;2252.80;;;;;;4938033;29;20038;-85
2022/12/21 10:24:48;;;;;;;68.75;40.67;;;128.10;2252.80;;;;;;4934812;29;20396;-87
2022/12/21 10:27:39;;;;;;;64.32;37.67;;;128.30;2252.80;;;;;;4933941;29;20475;-87
2022/12/21 10:30:13;;;;;;;65.07;39.33;;;128.40;2252.80;;;;;;4937709;29;20095;-88
2022/12/21 10:32:42;;;;;;;68.28;43.55;;;128.60;2252.80;;;;;;4936154;29;20039;-84
2022/12/21 10:35:39;;;;;;;67.88;40.45;;;128.60;2252.80;;;;;;4936516;29;20067;-87
2022/12/21 10:38:17;;;;;;;63.60;39.40;;;128.70;2252.80;;;;;;4936473;29;20111;-88
2022/12/21 10:41:01;;;;;;;60.42;37.92;;;128.80;2252.80;;;;;;4936460;29;20052;-86
2022/12/21 10:43:27;;;;;;;53.22;36.72;;;128.90;2252.80;;;;;;4936475;29;20436;-87
2022/12/21 10:45:53;;;;;;;59.60;36.67;;;128.90;2252.80;;;;;;4935952;29;20494;-87
2022/12/21 10:48:19;;;;;;;60.15;38.40;;;153.60;2252.80;;;;;;4935329;29;20031;-88
2022/12/21 10:50:49;;;;;;;61.97;36.97;;;153.70;2252.80;;;;;;4919902;29;20394;-87
2022/12/21 10:53:26;;;;;;;58.67;37.13;;;153.80;2252.80;;;;;;4920320;29;20020;-88
2022/12/21 10:55:59;;;;;;;54.78;34.72;;;154.00;2252.80;;;;;;4919652;29;20119;-87
2022/12/21 10:58:29;;;;;;;;;;;154.00;2252.80;;;;;;4935860;29;20028;-85
2022/12/21 11:01:04;;;;;;;55.08;35.75;;;;;;;;;;4935011;29;19954;-85
2022/12/21 11:03:31;;;;;;;55.78;36.22;;;;;;;;;;4935471;29;20069;-86
2022/12/21 11:05:58;;;;;;;55.88;35.90;;;;;;;;;;4932450;29;20054;-87
2022/12/21 11:08:30;;;;;;;58.88;35.72;;;179.20;2252.80;;;;;;4934028;29;20039;-86
2022/12/21 11:11:01;;;;;;;56.83;37.28;;;154.50;2252.80;;;;;;4920159;29;20123;-87
2022/12/21 11:13:30;;;;;;;52.78;31.92;;;179.20;2252.80;;;;;;4920085;29;20059;-86
2022/12/21 11:16:07;;;;;;;63.70;41.47;;;154.50;2252.80;;;;;;4918385;29;20464;-87
2022/12/21 11:18:36;;;;;;;62.95;37.70;;;179.30;2252.80;;;;;;4919256;29;20063;-84
2022/12/21 11:21:09;;;;;;;49.63;33.42;;;179.40;2252.80;;;;;;4919855;29;20054;-88
2022/12/21 11:23:35;;;;;;;60.60;37.08;;;179.60;2252.80;;;;;;4919534;29;20491;-86
2022/12/21 11:26:01;;;;;;;67.80;39.33;;;179.60;2252.80;;;;;;4919614;29;20059;-87
2022/12/21 11:28:27;;;;;;;53.80;33.72;;;179.80;2252.80;;;;;;4919522;29;20472;-86
2022/12/21 11:31:03;;;;;;;59.95;36.22;;;179.90;2252.80;;;;;;4919473;29;20035;-88
2022/12/21 11:33:30;;;;;;;62.88;37.92;;;204.80;2252.80;;;;;;4916407;29;20056;-86
2022/12/21 11:36:14;;;;;;;58.08;35.00;;;204.80;2252.80;;;;;;4913333;29;20032;-86
2022/12/21 11:38:41;;;;;;;62.30;39.17;;;;;;;;;;4915549;29;20393;-89
2022/12/21 11:41:26;;;;;;;59.20;35.78;;;205.30;2252.80;;;;;;4915502;29;20039;-90
2022/12/21 11:43:52;;;;;;;72.68;46.40;;;205.30;2252.80;;;;;;4916275;29;20060;-89
2022/12/21 11:46:42;;;;;;;95.65;61.00;;;;;;;;;;4916467;29;20051;-88
2022/12/21 11:49:08;;;;;;;68.18;42.47;;;;;;;;;;4903887;29;20020;-89
2022/12/21 11:51:55;;;;;;;60.83;36.65;;;230.80;2252.80;;;;;;4916232;29;20047;-88
2022/12/21 11:54:33;;;;;;;54.50;34.30;;;230.80;2252.80;;;;;;4916650;29;20028;-91
2022/12/21 11:57:08;;;;;;;52.83;32.92;;;230.80;2252.80;;;;;;4916485;29;20043;-89
2022/12/21 11:59:59;;;;;;;45.08;30.50;;;230.80;2252.80;;;;;;4916383;29;20020;-90
2022/12/21 12:02:29;;;;;;;47.30;29.88;;;;;;;;;;4916512;29;20048;-90
2022/12/21 12:04:55;;;;;;;53.92;32.95;;;;;;;;;;4916326;29;20440;-87
2022/12/21 12:07:48;;;;;;;61.60;38.55;;;;;;;;;;4914925;29;20023;-90
2022/12/21 12:10:32;;;;;;;51.65;33.45;;;;;;;;;;4907981;29;20127;-88
2022/12/21 12:12:58;;;;;;;50.50;30.77;;;;;;;;;;4897345;29;20032;-89
2022/12/21 12:15:45;;;;;;;42.90;29.80;;;;;;;;;;4905929;29;20036;-89
2022/12/21 12:18:24;;;;;;;51.70;34.08;;;;;;;;;;4915525;29;20050;-88
2022/12/21 12:21:09;;;;;;;36.35;23.80;;;;;;;;;;4916420;29;20024;-89
2022/12/21 12:23:41;;;;;;;49.40;30.15;;;;;;;;;;4916065;29;20051;-90
2022/12/21 12:26:37;;;;;;;48.67;29.88;;;;;;;;;;4916199;29;20024;-88
2022/12/21 12:29:21;;;;;;;60.65;42.15;;;;;;;;;;4900642;29;20029;-91
2022/12/21 12:31:50;;;;;;;63.35;38.47;;;;;;;;;;4902486;29;20094;-88
2022/12/21 12:34:25;;;;;;;43.92;27.83;;;;;;;;;;4916690;29;20055;-89
2022/12/21 12:37:03;;;;;;;46.80;31.05;;;;;;;;;;4907406;29;20044;-88
2022/12/21 12:40:09;;;;;;;47.08;29.77;;;;;;;;;;4942267;29;20008;-86
2022/12/21 12:42:35;;;;;;;53.17;34.78;;;;;;;;;;4878887;29;20037;-88
2022/12/21 12:45:28;;;;;;;67.07;38.67;;;;;;;;;;4885963;29;20029;-89
2022/12/21 12:47:54;;;;;;;55.47;33.95;;;;;;;;;;4916059;29;20094;-90
2022/12/21 12:50:39;;;;;;;57.90;35.08;;;;;;;;;;4920015;29;20027;-89
2022/12/21 12:53:13;;;;;;;52.15;33.97;;;;;;;;;;4919457;29;20031;-89
2022/12/21 12:55:45;;;;;;;49.63;30.25;;;;;;;;;;4919614;29;20032;-89
2022/12/21 12:58:38;;;;;;;46.35;32.05;;;231.20;2252.80;;;;;;4919117;29;20028;-88
2022/12/21 13:01:28;;;;;;;55.78;35.33;;;231.20;2252.80;;;;;;4906145;29;20090;-87
2022/12/21 13:03:54;;;;;;;50.53;33.40;;;231.20;2252.80;;;;;;4919611;29;20123;-91
2022/12/21 13:06:41;;;;;;;37.83;27.08;;;;;;;;;;4919767;29;20059;-90
2022/12/21 13:09:16;;;;;;;61.80;46.58;;;231.10;2252.80;;;;;;4919654;29;20392;-89
2022/12/21 13:12:07;;;;;;;49.45;33.55;;;231.00;2252.80;;;;;;4919423;29;20039;-89
2022/12/21 13:14:46;;;;;;;43.88;28.92;;;231.30;2252.80;;;;;;4934295;29;20028;-91